createdAt,value
2018-11-03T00:00:17.880Z,15.87
2018-11-03T00:02:47.158Z,15.47
2018-11-03T00:05:16.340Z,14.57
2018-11-03T00:07:45.251Z,15.83
2018-11-03T00:10:13.761Z,15.07
2018-11-03T00:12:42.207Z,16.73
2018-11-03T00:15:10.887Z,16.27
2018-11-03T00:17:39.324Z,14.97
2018-11-03T00:20:07.902Z,15.93
2018-11-03T00:22:36.343Z,16.57
2018-11-03T00:25:05.543Z,16.47
2018-11-03T00:27:34.005Z,16.23
2018-11-03T00:30:02.450Z,17.50
2018-11-03T00:32:30.893Z,18.17
2018-11-03T00:34:59.336Z,16.97
2018-11-03T00:37:27.792Z,16.90
2018-11-03T00:39:56.279Z,18.27
2018-11-03T00:42:24.720Z,16.97
2018-11-03T00:44:53.178Z,16.83
2018-11-03T00:47:21.624Z,17.40
2018-11-03T00:49:50.112Z,17.90
2018-11-03T00:52:18.540Z,17.70
2018-11-03T00:54:47.023Z,17.17
2018-11-03T00:57:15.469Z,17.40
2018-11-03T00:59:43.882Z,17.40
2018-11-03T01:02:12.360Z,18.57
2018-11-03T01:04:40.845Z,17.33
2018-11-03T01:07:09.287Z,19.83
2018-11-03T01:09:37.699Z,20.27
2018-11-03T01:12:06.177Z,20.10
2018-11-03T01:14:34.594Z,19.13
2018-11-03T01:17:03.042Z,19.43
2018-11-03T01:19:31.461Z,20.43
2018-11-03T01:21:59.932Z,19.13
2018-11-03T01:24:28.373Z,19.93
2018-11-03T01:26:56.800Z,18.47
2018-11-03T01:29:25.229Z,19.03
2018-11-03T01:31:53.662Z,19.53
2018-11-03T01:34:22.090Z,19.47
2018-11-03T01:36:50.559Z,18.67
2018-11-03T01:39:18.963Z,19.63
2018-11-03T01:41:47.399Z,18.67
2018-11-03T01:44:15.855Z,19.17
2018-11-03T01:46:44.289Z,19.27
2018-11-03T01:49:12.714Z,19.63
2018-11-03T01:51:41.126Z,18.47
2018-11-03T01:54:09.573Z,20.07
2018-11-03T01:56:37.996Z,20.17
2018-11-03T01:59:06.515Z,21.80
2018-11-03T02:01:35.759Z,23.27
2018-11-03T02:04:04.200Z,23.80
2018-11-03T02:06:32.637Z,25.37
2018-11-03T02:09:01.063Z,25.57
2018-11-03T02:11:29.486Z,26.37
2018-11-03T02:13:57.953Z,27.27
2018-11-03T02:16:26.416Z,26.60
2018-11-03T02:18:54.881Z,24.67
2018-11-03T02:21:23.300Z,27.63
2018-11-03T02:23:51.750Z,27.10
2018-11-03T02:26:20.191Z,27.83
2018-11-03T02:28:48.604Z,28.53
2018-11-03T02:31:17.070Z,28.83
2018-11-03T02:33:45.540Z,28.37
2018-11-03T02:36:14.351Z,28.93
2018-11-03T02:38:42.867Z,27.37
2018-11-03T02:41:11.293Z,28.10
2018-11-03T02:43:39.741Z,28.60
2018-11-03T02:46:08.179Z,30.23
2018-11-03T02:48:36.627Z,26.63
2018-11-03T02:51:05.178Z,29.03
2018-11-03T02:53:33.640Z,28.30
2018-11-03T02:56:02.067Z,27.87
2018-11-03T02:58:30.506Z,26.43
2018-11-03T03:00:58.935Z,29.23
2018-11-03T03:03:27.381Z,29.93
2018-11-03T03:05:55.822Z,29.70
2018-11-03T03:08:24.234Z,28.17
2018-11-03T03:10:52.728Z,29.80
2018-11-03T03:13:21.226Z,28.13
2018-11-03T03:15:49.669Z,28.33
2018-11-03T03:18:18.182Z,28.17
2018-11-03T03:20:46.605Z,28.17
2018-11-03T03:23:15.038Z,29.20
2018-11-03T03:25:43.507Z,28.53
2018-11-03T03:28:11.918Z,29.03
2018-11-03T03:30:40.354Z,28.20
2018-11-03T03:33:08.774Z,26.53
2018-11-03T03:35:37.192Z,28.00
2018-11-03T03:38:05.666Z,27.27
2018-11-03T03:40:34.097Z,28.37
2018-11-03T03:43:02.512Z,26.63
2018-11-03T03:45:30.977Z,27.27
2018-11-03T03:47:59.415Z,26.90
2018-11-03T03:50:27.838Z,26.40
2018-11-03T03:52:56.290Z,26.83
2018-11-03T03:55:24.755Z,24.67
2018-11-03T03:57:53.175Z,26.50
2018-11-03T04:00:21.604Z,25.17
2018-11-03T04:02:50.013Z,25.57
2018-11-03T04:05:18.480Z,24.80
2018-11-03T04:07:53.158Z,25.90
2018-11-03T04:10:21.616Z,24.87
2018-11-03T04:12:50.028Z,24.63
2018-11-03T04:15:18.541Z,26.07
2018-11-03T04:17:46.961Z,24.70
2018-11-03T04:20:15.396Z,25.63
2018-11-03T04:22:43.841Z,24.83
2018-11-03T04:25:12.290Z,24.40
2018-11-03T04:27:40.713Z,23.17
2018-11-03T04:30:12.675Z,23.30
2018-11-03T04:32:41.173Z,24.07
2018-11-03T04:35:10.181Z,23.37
2018-11-03T04:37:38.666Z,23.23
2018-11-03T04:40:08.533Z,22.67
2018-11-03T04:42:36.956Z,22.47
2018-11-03T04:45:05.939Z,22.77
2018-11-03T04:47:34.306Z,22.30
2018-11-03T04:50:02.779Z,22.17
2018-11-03T04:52:31.209Z,22.50
2018-11-03T04:54:59.635Z,24.13
2018-11-03T04:57:28.146Z,23.73
2018-11-03T04:59:56.563Z,23.07
2018-11-03T05:02:24.972Z,23.30
2018-11-03T05:04:53.426Z,21.97
2018-11-03T05:07:21.862Z,22.37
2018-11-03T05:09:50.290Z,23.47
2018-11-03T05:12:18.717Z,23.97
2018-11-03T05:14:47.143Z,22.70
2018-11-03T05:17:15.565Z,24.47
2018-11-03T05:19:44.026Z,24.07
2018-11-03T05:22:12.455Z,24.77
2018-11-03T05:24:40.891Z,25.20
2018-11-03T05:27:09.320Z,24.87
2018-11-03T05:29:37.740Z,25.77
2018-11-03T05:32:06.275Z,24.53
2018-11-03T05:34:34.729Z,25.27
2018-11-03T05:37:03.182Z,24.63
2018-11-03T05:39:31.594Z,25.97
2018-11-03T05:42:00.020Z,24.60
2018-11-03T05:44:28.481Z,25.67
2018-11-03T05:46:56.942Z,24.50
2018-11-03T05:49:25.385Z,24.57
2018-11-03T05:51:53.863Z,24.30
2018-11-03T05:54:22.284Z,23.87
2018-11-03T05:56:50.728Z,24.30
2018-11-03T05:59:19.190Z,24.43
2018-11-03T06:01:47.662Z,23.13
2018-11-03T06:04:16.142Z,24.90
2018-11-03T06:06:44.579Z,23.70
2018-11-03T06:09:13.105Z,23.10
2018-11-03T06:11:41.541Z,24.37
2018-11-03T06:14:09.965Z,23.23
2018-11-03T06:16:38.433Z,23.27
2018-11-03T06:19:06.878Z,22.53
2018-11-03T06:21:35.354Z,24.33
2018-11-03T06:24:03.797Z,24.50
2018-11-03T06:26:32.234Z,24.03
2018-11-03T06:29:00.652Z,23.90
2018-11-03T06:31:29.157Z,24.60
2018-11-03T06:33:57.666Z,25.27
2018-11-03T06:36:26.146Z,24.83
2018-11-03T06:38:54.665Z,25.40
2018-11-03T06:41:23.111Z,25.60
2018-11-03T06:43:51.857Z,24.93
2018-11-03T06:46:20.342Z,23.83
2018-11-03T06:48:48.782Z,25.87
2018-11-03T06:51:17.216Z,25.00
2018-11-03T06:53:45.650Z,25.17
2018-11-03T06:56:14.097Z,24.60
2018-11-03T06:58:43.653Z,24.37
2018-11-03T07:01:12.415Z,25.10
2018-11-03T07:03:40.859Z,24.67
2018-11-03T07:06:09.343Z,23.57
2018-11-03T07:08:37.775Z,24.10
2018-11-03T07:11:06.244Z,23.70
2018-11-03T07:13:35.001Z,23.60
2018-11-03T07:16:03.474Z,23.70
2018-11-03T07:18:31.910Z,24.10
2018-11-03T07:21:00.367Z,24.07
2018-11-03T07:23:28.799Z,23.13
2018-11-03T07:25:57.285Z,36.33
2018-11-03T07:28:25.727Z,26.30
2018-11-03T07:30:54.148Z,36.00
2018-11-03T07:33:22.643Z,24.80
2018-11-03T07:35:51.072Z,26.23
2018-11-03T07:38:19.546Z,23.43
2018-11-03T07:40:48.057Z,26.10
2018-11-03T07:43:16.450Z,22.73
2018-11-03T07:45:44.896Z,33.37
2018-11-03T07:48:13.452Z,49.77
2018-11-03T07:50:41.902Z,26.93
2018-11-03T07:53:10.337Z,24.60
2018-11-03T07:55:38.748Z,22.40
2018-11-03T07:58:07.186Z,23.07
2018-11-03T08:00:42.333Z,24.20
2018-11-03T08:03:10.751Z,23.33
2018-11-03T08:05:39.414Z,23.43
2018-11-03T08:08:07.947Z,22.90
2018-11-03T08:10:36.371Z,23.27
2018-11-03T08:13:05.320Z,23.30
2018-11-03T08:15:33.810Z,22.50
2018-11-03T08:18:02.256Z,22.43
2018-11-03T08:20:30.677Z,23.10
2018-11-03T08:22:59.104Z,22.50
2018-11-03T08:25:27.521Z,22.47
2018-11-03T08:27:56.047Z,22.03
2018-11-03T08:30:24.533Z,22.43
2018-11-03T08:32:52.996Z,22.07
2018-11-03T08:35:21.429Z,23.67
2018-11-03T08:37:49.895Z,23.17
2018-11-03T08:40:18.363Z,23.53
2018-11-03T08:42:46.808Z,23.73
2018-11-03T08:45:15.355Z,24.77
2018-11-03T08:47:43.882Z,23.63
2018-11-03T08:50:13.080Z,24.33
2018-11-03T08:52:41.869Z,24.60
2018-11-03T08:55:11.580Z,25.07
2018-11-03T08:57:40.057Z,24.37
2018-11-03T09:00:10.805Z,24.50
2018-11-03T09:02:39.156Z,24.13
2018-11-03T09:05:08.161Z,24.93
2018-11-03T09:07:37.306Z,24.67
2018-11-03T09:10:07.568Z,23.67
2018-11-03T09:12:36.007Z,23.87
2018-11-03T09:15:05.067Z,24.00
2018-11-03T09:17:33.478Z,23.77
2018-11-03T09:20:01.995Z,23.93
2018-11-03T09:22:30.485Z,25.17
2018-11-03T09:24:58.818Z,22.83
2018-11-03T09:27:27.764Z,24.90
2018-11-03T09:29:56.226Z,23.43
2018-11-03T09:32:24.677Z,23.47
2018-11-03T09:34:53.179Z,23.83
2018-11-03T09:37:21.655Z,24.03
2018-11-03T09:39:50.333Z,22.77
2018-11-03T09:42:18.978Z,23.33
2018-11-03T09:44:47.567Z,22.03
2018-11-03T09:47:16.071Z,21.67
2018-11-03T09:49:44.533Z,21.83
2018-11-03T09:52:12.935Z,20.03
2018-11-03T09:54:41.395Z,19.97
2018-11-03T09:57:09.826Z,18.53
2018-11-03T09:59:38.263Z,16.60
2018-11-03T10:02:06.754Z,16.07
2018-11-03T10:04:35.211Z,17.90
2018-11-03T10:07:03.744Z,17.43
2018-11-03T10:09:32.161Z,18.30
2018-11-03T10:12:00.630Z,16.57
2018-11-03T10:14:29.111Z,16.53
2018-11-03T10:16:57.767Z,16.73
2018-11-03T10:19:26.447Z,16.77
2018-11-03T10:21:54.937Z,17.57
2018-11-03T10:24:23.444Z,17.97
2018-11-03T10:26:51.883Z,16.90
2018-11-03T10:29:20.389Z,15.30
2018-11-03T10:31:49.756Z,15.90
2018-11-03T10:34:18.185Z,15.57
2018-11-03T10:36:46.637Z,15.30
2018-11-03T10:39:16.818Z,14.23
2018-11-03T10:41:45.512Z,14.80
2018-11-03T10:44:13.972Z,13.87
2018-11-03T10:46:42.558Z,13.37
2018-11-03T10:49:11.174Z,12.53
2018-11-03T10:51:39.610Z,12.27
2018-11-03T10:54:08.477Z,14.93
2018-11-03T10:56:38.029Z,13.13
2018-11-03T10:59:06.529Z,12.20
2018-11-03T11:01:40.385Z,11.77
2018-11-03T11:04:14.387Z,12.50
2018-11-03T11:06:48.299Z,11.87
2018-11-03T11:09:22.140Z,12.47
2018-11-03T11:11:55.780Z,11.43
2018-11-03T11:14:24.259Z,12.70
2018-11-03T11:16:52.837Z,12.60
2018-11-03T11:19:21.209Z,12.43
2018-11-03T11:21:49.675Z,12.67
2018-11-03T11:24:18.322Z,10.87
2018-11-03T11:26:46.716Z,11.70
2018-11-03T11:29:15.254Z,10.17
2018-11-03T11:31:43.756Z,10.17
2018-11-03T11:34:12.247Z,11.17
2018-11-03T11:36:40.897Z,10.30
2018-11-03T11:39:09.416Z,9.30
2018-11-03T11:41:37.983Z,9.73
2018-11-03T11:44:11.844Z,9.60
2018-11-03T11:46:40.482Z,10.37
2018-11-03T11:49:13.921Z,9.60
2018-11-03T11:51:42.844Z,10.20
2018-11-03T11:54:11.352Z,8.83
2018-11-03T11:56:39.846Z,9.43
2018-11-03T11:59:08.361Z,9.27
2018-11-03T12:01:36.905Z,9.60
2018-11-03T12:04:06.094Z,9.03
2018-11-03T12:06:34.549Z,8.87
2018-11-03T12:09:03.090Z,8.30
2018-11-03T12:11:31.570Z,8.90
2018-11-03T12:14:00.100Z,8.93
2018-11-03T12:16:28.630Z,8.83
2018-11-03T12:18:57.113Z,8.23
2018-11-03T12:21:25.668Z,7.70
2018-11-03T12:23:54.220Z,7.53
2018-11-03T12:26:22.800Z,6.93
2018-11-03T12:28:51.282Z,6.70
2018-11-03T12:31:20.114Z,6.40
2018-11-03T12:33:48.677Z,7.03
2018-11-03T12:36:17.150Z,6.87
2018-11-03T12:38:45.605Z,6.47
2018-11-03T12:41:14.148Z,6.97
2018-11-03T12:43:42.661Z,6.37
2018-11-03T12:46:11.204Z,6.53
2018-11-03T12:48:40.128Z,6.40
2018-11-03T12:51:08.622Z,6.43
2018-11-03T12:53:37.108Z,6.83
2018-11-03T12:56:05.626Z,6.60
2018-11-03T12:58:34.015Z,6.93
2018-11-03T13:01:02.497Z,6.07
2018-11-03T13:03:31.000Z,7.20
2018-11-03T13:05:59.455Z,7.23
2018-11-03T13:08:29.124Z,6.70
2018-11-03T13:10:57.635Z,6.20
2018-11-03T13:13:26.114Z,6.40
2018-11-03T13:15:54.643Z,6.23
2018-11-03T13:18:25.460Z,5.87
2018-11-03T13:20:55.142Z,5.50
2018-11-03T13:23:23.649Z,6.50
2018-11-03T13:25:52.150Z,5.47
2018-11-03T13:28:31.208Z,6.27
2018-11-03T13:31:02.320Z,5.80
2018-11-03T13:33:31.608Z,5.57
2018-11-03T13:36:00.103Z,5.47
2018-11-03T13:38:28.565Z,5.47
2018-11-03T13:40:58.646Z,5.20
2018-11-03T13:43:27.149Z,5.10
2018-11-03T13:45:55.622Z,5.77
2018-11-03T13:48:24.170Z,5.13
2018-11-03T13:51:01.869Z,5.77
2018-11-03T13:53:30.351Z,7.30
2018-11-03T13:55:58.818Z,7.77
2018-11-03T13:58:27.257Z,8.53
2018-11-03T14:00:55.808Z,9.17
2018-11-03T14:03:24.262Z,9.67
2018-11-03T14:05:52.771Z,9.20
2018-11-03T14:08:21.319Z,9.73
2018-11-03T14:10:49.798Z,10.20
2018-11-03T14:13:18.417Z,11.50
2018-11-03T14:15:46.874Z,11.87
2018-11-03T14:18:15.328Z,11.00
2018-11-03T14:20:43.781Z,11.53
2018-11-03T14:23:12.221Z,11.43
2018-11-03T14:25:40.729Z,11.77
2018-11-03T14:28:09.201Z,12.13
2018-11-03T14:30:37.675Z,12.97
2018-11-03T14:33:06.365Z,12.97
2018-11-03T14:35:34.847Z,13.20
2018-11-03T14:38:03.315Z,13.83
2018-11-03T14:40:31.767Z,14.50
2018-11-03T14:43:00.177Z,14.87
2018-11-03T14:45:28.847Z,14.77
2018-11-03T14:47:57.111Z,16.00
2018-11-03T14:50:33.453Z,15.77
2018-11-03T14:53:01.930Z,16.67
2018-11-03T14:55:30.371Z,17.13
2018-11-03T14:57:58.838Z,17.43
2018-11-03T15:00:27.307Z,17.10
2018-11-03T15:02:55.780Z,18.03
2018-11-03T15:05:24.290Z,17.17
2018-11-03T15:07:52.700Z,18.50
2018-11-03T15:10:21.217Z,17.63
2018-11-03T15:12:49.642Z,17.90
2018-11-03T15:15:18.127Z,19.00
2018-11-03T15:17:46.538Z,18.07
2018-11-03T15:20:14.999Z,18.60
2018-11-03T15:22:44.275Z,17.30
2018-11-03T15:25:12.961Z,17.43
2018-11-03T15:27:42.011Z,17.10
2018-11-03T15:30:11.767Z,17.57
2018-11-03T15:32:41.052Z,16.67
2018-11-03T15:35:10.556Z,16.50
2018-11-03T15:37:39.311Z,16.93
2018-11-03T15:40:11.879Z,16.27
2018-11-03T15:42:40.399Z,15.77
2018-11-03T15:45:11.507Z,15.43
2018-11-03T15:47:40.131Z,14.90
2018-11-03T15:50:08.790Z,15.13
2018-11-03T15:52:37.414Z,14.90
2018-11-03T15:55:06.548Z,15.67
2018-11-03T15:57:35.081Z,15.00
2018-11-03T16:00:03.955Z,14.70
2018-11-03T16:02:32.447Z,15.57
2018-11-03T16:05:00.939Z,14.87
2018-11-03T16:07:29.358Z,15.13
2018-11-03T16:09:57.823Z,14.50
2018-11-03T16:12:26.484Z,14.73
2018-11-03T16:14:54.958Z,14.40
2018-11-03T16:17:23.521Z,15.23
2018-11-03T16:19:52.027Z,14.80
2018-11-03T16:22:20.507Z,15.30
2018-11-03T16:24:48.981Z,14.47
2018-11-03T16:27:17.471Z,14.73
2018-11-03T16:29:46.042Z,14.60
2018-11-03T16:32:14.532Z,15.37
2018-11-03T16:34:43.006Z,15.10
2018-11-03T16:37:11.485Z,16.40
2018-11-03T16:39:40.061Z,15.03
2018-11-03T16:42:08.588Z,16.30
2018-11-03T16:44:37.146Z,16.70
2018-11-03T16:47:06.142Z,16.47
2018-11-03T16:49:34.617Z,16.43
2018-11-03T16:52:03.071Z,17.87
2018-11-03T16:54:31.651Z,18.00
2018-11-03T16:57:00.088Z,19.00
2018-11-03T16:59:28.884Z,18.40
2018-11-03T17:01:57.376Z,19.70
2018-11-03T17:04:25.830Z,19.40
2018-11-03T17:06:54.342Z,19.67
2018-11-03T17:09:22.772Z,19.57
2018-11-03T17:11:51.255Z,20.17
2018-11-03T17:14:19.722Z,21.13
2018-11-03T17:16:48.185Z,19.60
2018-11-03T17:19:16.632Z,19.47
2018-11-03T17:21:45.064Z,20.53
2018-11-03T17:24:13.573Z,20.43
2018-11-03T17:26:42.033Z,19.00
2018-11-03T17:29:10.530Z,19.67
2018-11-03T17:31:38.995Z,19.17
2018-11-03T17:34:07.489Z,18.87
2018-11-03T17:36:35.993Z,18.70
2018-11-03T17:39:06.186Z,18.60
2018-11-03T17:41:34.902Z,19.53
2018-11-03T17:44:03.786Z,20.90
2018-11-03T17:46:32.883Z,20.13
2018-11-03T17:49:01.409Z,21.03
2018-11-03T17:51:29.985Z,21.20
2018-11-03T17:53:58.498Z,20.70
2018-11-03T17:56:27.089Z,19.80
2018-11-03T17:58:55.670Z,20.33
2018-11-03T18:01:24.781Z,21.20
2018-11-03T18:03:53.357Z,19.33
2018-11-03T18:06:22.064Z,19.77
2018-11-03T18:08:50.619Z,20.70
2018-11-03T18:11:19.116Z,21.57
2018-11-03T18:13:47.575Z,20.63
2018-11-03T18:16:16.031Z,20.97
2018-11-03T18:18:44.528Z,21.80
2018-11-03T18:21:13.018Z,19.47
2018-11-03T18:23:41.697Z,20.37
2018-11-03T18:26:10.568Z,21.80
2018-11-03T18:28:38.997Z,21.23
2018-11-03T18:31:07.540Z,23.77
2018-11-03T18:33:36.117Z,24.40
2018-11-03T18:36:04.547Z,24.10
2018-11-03T18:38:32.961Z,24.43
2018-11-03T18:41:01.395Z,24.23
2018-11-03T18:43:29.806Z,26.03
2018-11-03T18:45:59.204Z,26.47
2018-11-03T18:48:27.809Z,27.67
2018-11-03T18:50:56.253Z,25.67
2018-11-03T18:53:24.815Z,27.73
2018-11-03T18:55:53.247Z,28.17
2018-11-03T18:58:21.735Z,26.67
2018-11-03T19:00:50.168Z,28.93
2018-11-03T19:03:18.644Z,30.57
2018-11-03T19:05:47.121Z,32.70
2018-11-03T19:08:15.609Z,32.83
2018-11-03T19:10:44.031Z,32.60
2018-11-03T19:13:12.654Z,31.77
2018-11-03T19:15:41.102Z,33.93
2018-11-03T19:18:09.557Z,35.67
2018-11-03T19:20:38.012Z,34.47
2018-11-03T19:23:06.514Z,33.57
2018-11-03T19:25:34.971Z,33.67
2018-11-03T19:28:03.445Z,36.10
2018-11-03T19:30:31.892Z,38.20
2018-11-03T19:33:00.350Z,37.67
2018-11-03T19:35:28.806Z,36.50
2018-11-03T19:37:57.324Z,37.80
2018-11-03T19:40:25.741Z,37.13
2018-11-03T19:42:54.168Z,35.47
2018-11-03T19:45:22.642Z,37.13
2018-11-03T19:47:51.025Z,37.93
2018-11-03T19:50:19.453Z,38.07
2018-11-03T19:52:47.865Z,39.40
2018-11-03T19:55:16.311Z,41.20
2018-11-03T19:57:44.781Z,42.80
2018-11-03T20:00:14.535Z,44.47
2018-11-03T20:02:43.113Z,43.40
2018-11-03T20:05:12.003Z,44.50
2018-11-03T20:07:41.215Z,43.87
2018-11-03T20:10:09.899Z,41.87
2018-11-03T20:12:38.248Z,40.20
2018-11-03T20:15:08.392Z,39.77
2018-11-03T20:17:36.864Z,39.80
2018-11-03T20:20:06.636Z,38.67
2018-11-03T20:22:35.057Z,36.73
2018-11-03T20:25:03.545Z,34.67
2018-11-03T20:27:31.963Z,34.57
2018-11-03T20:30:00.420Z,34.73
2018-11-03T20:32:28.854Z,34.77
2018-11-03T20:34:57.311Z,34.03
2018-11-03T20:37:25.804Z,36.00
2018-11-03T20:39:54.255Z,33.97
2018-11-03T20:42:22.714Z,33.80
2018-11-03T20:44:51.193Z,33.53
2018-11-03T20:47:19.693Z,32.50
2018-11-03T20:49:48.187Z,31.10
2018-11-03T20:52:16.664Z,29.50
2018-11-03T20:54:45.105Z,30.50
2018-11-03T20:57:13.585Z,30.93
2018-11-03T20:59:42.221Z,30.33
2018-11-03T21:02:10.918Z,30.07
2018-11-03T21:04:39.285Z,29.90
2018-11-03T21:07:07.834Z,29.03
2018-11-03T21:09:36.422Z,27.97
2018-11-03T21:12:05.075Z,29.07
2018-11-03T21:14:33.515Z,27.83
2018-11-03T21:17:02.229Z,26.80
2018-11-03T21:19:30.709Z,26.77
2018-11-03T21:21:59.313Z,27.77
2018-11-03T21:24:34.464Z,27.77
2018-11-03T21:27:02.924Z,29.40
2018-11-03T21:29:31.374Z,29.50
2018-11-03T21:31:59.899Z,30.47
2018-11-03T21:34:28.388Z,29.63
2018-11-03T21:36:56.881Z,29.40
2018-11-03T21:39:25.368Z,29.27
2018-11-03T21:41:53.804Z,27.67
2018-11-03T21:44:22.276Z,27.47
2018-11-03T21:46:51.130Z,26.47
2018-11-03T21:49:19.399Z,26.77
2018-11-03T21:51:47.857Z,27.13
2018-11-03T21:54:16.331Z,27.43
2018-11-03T21:56:44.805Z,27.27
2018-11-03T21:59:13.240Z,27.60
2018-11-03T22:01:41.684Z,27.60
2018-11-03T22:04:10.155Z,28.00
2018-11-03T22:06:38.826Z,27.30
2018-11-03T22:09:09.422Z,27.80
2018-11-03T22:11:37.881Z,26.57
2018-11-03T22:14:06.421Z,26.10
2018-11-03T22:16:34.926Z,25.07
2018-11-03T22:19:03.366Z,25.83
2018-11-03T22:21:32.092Z,25.40
2018-11-03T22:24:01.119Z,25.87
2018-11-03T22:26:29.567Z,24.33
2018-11-03T22:28:58.081Z,24.57
2018-11-03T22:31:26.639Z,24.30
2018-11-03T22:33:55.119Z,25.43
2018-11-03T22:36:23.544Z,23.80
2018-11-03T22:38:51.983Z,23.73
2018-11-03T22:41:20.414Z,24.50
2018-11-03T22:43:48.851Z,24.43
2018-11-03T22:46:17.303Z,24.23
2018-11-03T22:48:45.759Z,24.60
2018-11-03T22:51:14.840Z,23.23
2018-11-03T22:53:44.501Z,23.30
2018-11-03T22:56:12.954Z,23.13
2018-11-03T22:58:41.390Z,22.87
2018-11-03T23:01:09.867Z,23.07
2018-11-03T23:03:38.285Z,23.17
2018-11-03T23:06:06.759Z,21.80
2018-11-03T23:08:35.218Z,22.20
2018-11-03T23:11:03.659Z,20.67
2018-11-03T23:13:32.100Z,20.87
2018-11-03T23:16:00.558Z,20.33
2018-11-03T23:18:29.028Z,19.60
2018-11-03T23:20:57.453Z,18.53
2018-11-03T23:23:25.886Z,19.10
2018-11-03T23:25:54.319Z,20.23
2018-11-03T23:28:22.724Z,19.73
2018-11-03T23:30:51.253Z,19.00
2018-11-03T23:33:19.663Z,18.70
2018-11-03T23:35:54.784Z,19.17
2018-11-03T23:38:23.245Z,18.63
2018-11-03T23:40:51.697Z,18.90
2018-11-03T23:43:20.160Z,18.70
2018-11-03T23:45:48.629Z,18.50
2018-11-03T23:48:17.064Z,19.37
2018-11-03T23:50:45.508Z,18.50
2018-11-03T23:53:14.195Z,17.53
2018-11-03T23:55:42.609Z,18.00
2018-11-03T23:58:11.090Z,18.77
